Time,TemperatureF,DewpointF,PressureIn,WindDirection,WindDirectionDegrees,WindSpeedMPH,WindSpeedGustMPH,Humidity,HourlyPrecipIn,Conditions,Clouds,dailyrainin,SoftwareType,DateUTC
2013-03-05 00:00:00,40.7,30.6,29.95,NW,316,3.0,3.0,67,0.00,,,0.00,Wunderground v.1.15,2013-03-05 08:00:00,
2013-03-05 00:05:00,40.5,31.1,29.94,NE,38,3.0,6.0,69,0.00,,,0.00,Wunderground v.1.15,2013-03-05 08:05:00,
2013-03-05 00:10:00,40.4,30.3,29.94,East,94,3.0,6.0,67,0.00,,,0.00,Wunderground v.1.15,2013-03-05 08:10:00,
2013-03-05 00:15:00,40.4,30.3,29.94,North,353,3.0,6.0,67,0.00,,,0.00,Wunderground v.1.15,2013-03-05 08:15:00,
2013-03-05 00:20:00,40.5,30.8,29.94,ENE,66,3.0,7.0,68,0.00,,,0.00,Wunderground v.1.15,2013-03-05 08:20:00,
2013-03-05 00:25:00,40.6,30.5,29.94,NE,49,3.0,7.0,67,0.00,,,0.00,Wunderground v.1.15,2013-03-05 08:25:00,
2013-03-05 00:30:00,40.6,30.1,29.94,ENE,63,3.0,9.0,66,0.00,,,0.00,Wunderground v.1.15,2013-03-05 08:30:00,
2013-03-05 00:35:00,40.7,30.6,29.94,North,360,3.0,9.0,67,0.00,,,0.00,Wunderground v.1.15,2013-03-05 08:35:00,
2013-03-05 00:40:00,40.5,30.0,29.93,NE,41,3.0,6.0,66,0.00,,,0.00,Wunderground v.1.15,2013-03-05 08:40:00,
2013-03-05 00:45:00,40.5,30.4,29.93,North,360,3.0,6.0,67,0.00,,,0.00,Wunderground v.1.15,2013-03-05 08:45:00,
2013-03-05 00:50:00,40.4,30.3,29.93,NNE,27,3.0,3.0,67,0.00,,,0.00,Wunderground v.1.15,2013-03-05 08:50:00,
2013-03-05 00:55:00,40.5,30.8,29.93,ENE,64,3.0,6.0,68,0.00,,,0.00,Wunderground v.1.15,2013-03-05 08:55:00,
2013-03-05 01:00:00,40.7,29.5,29.93,NE,47,3.0,3.0,64,0.00,,,0.00,Wunderground v.1.15,2013-03-05 09:00:00,
2013-03-05 01:10:00,40.7,30.6,29.93,North,7,3.0,3.0,67,0.00,,,0.00,Wunderground v.1.15,2013-03-05 09:10:00,
2013-03-05 01:15:00,40.5,30.4,29.93,NNE,32,3.0,6.0,67,0.00,,,0.00,Wunderground v.1.15,2013-03-05 09:15:00,
2013-03-05 01:20:00,40.4,29.9,29.93,NNW,341,3.0,3.0,66,0.00,,,0.00,Wunderground v.1.15,2013-03-05 09:20:00,
2013-03-05 01:25:00,40.5,30.4,29.93,North,11,4.0,4.0,67,0.00,,,0.00,Wunderground v.1.15,2013-03-05 09:25:00,
2013-03-05 01:30:00,40.4,30.3,29.93,NNW,335,3.0,3.0,67,0.00,,,0.00,Wunderground v.1.15,2013-03-05 09:30:00,
2013-03-05 01:35:00,40.4,29.6,29.92,NW,323,3.0,6.0,65,0.00,,,0.00,Wunderground v.1.15,2013-03-05 09:35:00,
2013-03-05 01:40:00,40.5,30.4,29.92,North,5,3.0,3.0,67,0.00,,,0.00,Wunderground v.1.15,2013-03-05 09:40:00,
2013-03-05 01:45:00,40.6,29.7,29.92,NW,306,3.0,6.0,65,0.00,,,0.00,Wunderground v.1.15,2013-03-05 09:45:00,
2013-03-05 01:50:00,40.6,30.5,29.92,North,351,4.0,4.0,67,0.00,,,0.00,Wunderground v.1.15,2013-03-05 09:50:00,
2013-03-05 01:55:00,40.6,29.7,29.92,NNW,338,4.0,5.0,65,0.00,,,0.00,Wunderground v.1.15,2013-03-05 09:55:00,
2013-03-05 02:00:00,40.5,29.7,29.92,ENE,72,3.0,6.0,65,0.00,,,0.00,Wunderground v.1.15,2013-03-05 10:00:00,
2013-03-05 02:05:00,40.5,29.7,29.92,NE,46,3.0,6.0,65,0.00,,,0.00,Wunderground v.1.15,2013-03-05 10:05:00,
2013-03-05 02:10:00,40.6,30.1,29.92,ENE,57,3.0,6.0,66,0.00,,,0.00,Wunderground v.1.15,2013-03-05 10:10:00,
2013-03-05 02:15:00,40.5,29.7,29.92,NNE,15,3.0,6.0,65,0.00,,,0.00,Wunderground v.1.15,2013-03-05 10:15:00,
2013-03-05 02:20:00,40.3,30.9,29.92,NNE,23,3.0,3.0,69,0.00,,,0.00,Wunderground v.1.15,2013-03-05 10:20:00,
2013-03-05 02:25:00,40.2,29.7,29.92,NE,40,3.0,4.0,66,0.00,,,0.00,Wunderground v.1.15,2013-03-05 10:25:00,
2013-03-05 02:30:00,40.4,30.3,29.91,NE,49,3.0,6.0,67,0.00,,,0.00,Wunderground v.1.15,2013-03-05 10:30:00,
2013-03-05 02:35:00,40.5,29.7,29.91,NE,53,3.0,6.0,65,0.00,,,0.00,Wunderground v.1.15,2013-03-05 10:35:00,
2013-03-05 02:45:00,40.6,30.1,29.91,NE,44,3.0,6.0,66,0.00,,,0.00,Wunderground v.1.15,2013-03-05 10:45:00,
2013-03-05 02:50:00,40.5,30.4,29.91,ENE,75,3.0,6.0,67,0.00,,,0.00,Wunderground v.1.15,2013-03-05 10:50:00,
2013-03-05 02:55:00,40.6,29.7,29.90,WNW,303,3.0,6.0,65,0.00,,,0.00,Wunderground v.1.15,2013-03-05 10:55:00,
2013-03-05 03:00:00,40.7,29.8,29.90,NNW,338,3.0,6.0,65,0.00,,,0.00,Wunderground v.1.15,2013-03-05 11:00:00,
2013-03-05 03:05:00,40.6,29.7,29.90,SW,215,3.0,6.0,65,0.00,,,0.00,Wunderground v.1.15,2013-03-05 11:05:00,
2013-03-05 03:10:00,40.6,29.7,29.89,NE,34,3.0,6.0,65,0.00,,,0.00,Wunderground v.1.15,2013-03-05 11:10:00,
2013-03-05 03:20:00,41.0,29.0,29.89,North,355,4.0,4.0,62,0.00,,,0.00,Wunderground v.1.15,2013-03-05 11:20:00,
2013-03-05 03:25:00,40.9,28.9,29.89,NNW,329,4.0,6.0,62,0.00,,,0.00,Wunderground v.1.15,2013-03-05 11:25:00,
2013-03-05 03:30:00,40.9,30.0,29.88,East,84,3.0,7.0,65,0.00,,,0.00,Wunderground v.1.15,2013-03-05 11:30:00,
2013-03-05 03:35:00,41.0,29.4,29.88,NNE,14,3.0,7.0,63,0.00,,,0.00,Wunderground v.1.15,2013-03-05 11:35:00,
2013-03-05 03:40:00,40.8,29.6,29.88,North,11,3.0,3.0,64,0.00,,,0.00,Wunderground v.1.15,2013-03-05 11:40:00,
2013-03-05 03:45:00,40.6,29.7,29.88,WNW,303,2.0,7.0,65,0.00,,,0.00,Wunderground v.1.15,2013-03-05 11:45:00,
2013-03-05 03:50:00,40.7,29.1,29.88,East,81,3.0,6.0,63,0.00,,,0.00,Wunderground v.1.15,2013-03-05 11:50:00,
2013-03-05 03:55:00,40.8,30.7,29.88,NE,43,4.0,6.0,67,0.00,,,0.00,Wunderground v.1.15,2013-03-05 11:55:00,
2013-03-05 04:00:00,40.6,30.1,29.88,NNW,343,3.0,3.0,66,0.00,,,0.00,Wunderground v.1.15,2013-03-05 12:00:00,
2013-03-05 04:05:00,40.9,28.9,29.88,WNW,300,4.0,4.0,62,0.00,,,0.00,Wunderground v.1.15,2013-03-05 12:05:00,
2013-03-05 04:10:00,41.2,29.5,29.87,NW,321,4.0,4.0,63,0.00,,,0.00,Wunderground v.1.15,2013-03-05 12:10:00,
2013-03-05 04:15:00,41.2,29.2,29.87,ENE,75,3.0,6.0,62,0.00,,,0.00,Wunderground v.1.15,2013-03-05 12:15:00,
2013-03-05 04:20:00,41.4,29.3,29.87,NNE,22,3.0,6.0,62,0.00,,,0.00,Wunderground v.1.15,2013-03-05 12:20:00,
2013-03-05 04:30:00,41.7,29.2,29.88,North,351,3.0,3.0,61,0.00,,,0.00,Wunderground v.1.15,2013-03-05 12:30:00,
2013-03-05 04:35:00,41.8,29.7,29.87,NNE,29,3.0,6.0,62,0.00,,,0.00,Wunderground v.1.15,2013-03-05 12:35:00,
2013-03-05 04:40:00,41.8,29.7,29.87,North,9,3.0,6.0,62,0.00,,,0.00,Wunderground v.1.15,2013-03-05 12:40:00,
2013-03-05 04:45:00,41.7,29.6,29.87,NNE,30,3.0,6.0,62,0.00,,,0.00,Wunderground v.1.15,2013-03-05 12:45:00,
2013-03-05 04:50:00,41.7,29.6,29.87,ENE,64,3.0,8.0,62,0.00,,,0.00,Wunderground v.1.15,2013-03-05 12:50:00,
2013-03-05 04:55:00,41.9,29.8,29.87,East,86,3.0,8.0,62,0.00,,,0.00,Wunderground v.1.15,2013-03-05 12:55:00,
2013-03-05 05:00:00,42.1,30.0,29.87,NW,317,3.0,3.0,62,0.00,,,0.00,Wunderground v.1.15,2013-03-05 13:00:00,
2013-03-05 05:05:00,42.1,29.6,29.87,NW,314,3.0,6.0,61,0.00,,,0.00,Wunderground v.1.15,2013-03-05 13:05:00,
2013-03-05 05:10:00,41.9,29.4,29.87,ENE,64,3.0,3.0,61,0.00,,,0.00,Wunderground v.1.15,2013-03-05 13:10:00,
2013-03-05 05:15:00,41.9,29.4,29.87,NE,44,3.0,6.0,61,0.00,,,0.00,Wunderground v.1.15,2013-03-05 13:15:00,
2013-03-05 05:20:00,41.9,29.0,29.87,NE,44,3.0,3.0,60,0.00,,,0.00,Wunderground v.1.15,2013-03-05 13:20:00,
2013-03-05 05:25:00,42.0,29.9,29.86,NNE,30,3.0,6.0,62,0.00,,,0.00,Wunderground v.1.15,2013-03-05 13:25:00,
2013-03-05 05:30:00,42.0,29.9,29.86,NNW,329,2.0,6.0,62,0.00,,,0.00,Wunderground v.1.15,2013-03-05 13:30:00,
2013-03-05 05:35:00,42.0,29.9,29.86,ENE,66,2.0,6.0,62,0.00,,,0.00,Wunderground v.1.15,2013-03-05 13:35:00,
2013-03-05 05:40:00,42.3,28.6,29.86,NE,49,3.0,3.0,58,0.00,,,0.00,Wunderground v.1.15,2013-03-05 13:40:00,
2013-03-05 05:45:00,42.5,28.8,29.86,NE,44,3.0,10.0,58,0.00,,,0.00,Wunderground v.1.15,2013-03-05 13:45:00,
2013-03-05 05:50:00,42.7,29.4,29.85,ENE,72,3.0,3.0,59,0.00,,,0.00,Wunderground v.1.15,2013-03-05 13:50:00,
2013-03-05 05:55:00,42.6,29.3,29.85,NE,36,3.0,6.0,59,0.00,,,0.00,Wunderground v.1.15,2013-03-05 13:55:00,
2013-03-05 06:00:00,42.5,30.0,29.85,ENE,69,3.0,6.0,61,0.00,,,0.00,Wunderground v.1.15,2013-03-05 14:00:00,
2013-03-05 06:05:00,42.8,28.6,29.85,NE,36,4.0,6.0,57,0.00,,,0.00,Wunderground v.1.15,2013-03-05 14:05:00,
2013-03-05 06:10:00,42.7,29.8,29.84,SSW,211,4.0,4.0,60,0.00,,,0.00,Wunderground v.1.15,2013-03-05 14:10:00,
2013-03-05 06:15:00,42.5,29.6,29.84,NE,40,3.0,6.0,60,0.00,,,0.00,Wunderground v.1.15,2013-03-05 14:15:00,
2013-03-05 06:20:00,42.2,29.7,29.84,North,358,3.0,7.0,61,0.00,,,0.00,Wunderground v.1.15,2013-03-05 14:20:00,
2013-03-05 06:25:00,42.4,29.1,29.83,NE,43,4.0,7.0,59,0.00,,,0.00,Wunderground v.1.15,2013-03-05 14:25:00,
2013-03-05 06:30:00,42.5,29.6,29.83,SW,229,3.0,3.0,60,0.00,,,0.00,Wunderground v.1.15,2013-03-05 14:30:00,
2013-03-05 06:35:00,42.4,28.7,29.83,WNW,301,3.0,6.0,58,0.00,,,0.00,Wunderground v.1.15,2013-03-05 14:35:00,
2013-03-05 06:40:00,42.4,30.3,29.83,NNE,21,3.0,6.0,62,0.00,,,0.00,Wunderground v.1.15,2013-03-05 14:40:00,
2013-03-05 06:45:00,42.2,30.1,29.83,NNE,26,3.0,6.0,62,0.00,,,0.00,Wunderground v.1.15,2013-03-05 14:45:00,
2013-03-05 06:50:00,42.3,29.0,29.83,ENE,69,3.0,3.0,59,0.00,,,0.00,Wunderground v.1.15,2013-03-05 14:50:00,
2013-03-05 06:55:00,42.4,29.1,29.83,North,349,3.0,6.0,59,0.00,,,0.00,Wunderground v.1.15,2013-03-05 14:55:00,
2013-03-05 07:00:00,42.6,30.5,29.83,NNW,335,3.0,3.0,62,0.00,,,0.00,Wunderground v.1.15,2013-03-05 15:00:00,
2013-03-05 07:05:00,42.7,29.8,29.83,NE,40,3.0,6.0,60,0.00,,,0.00,Wunderground v.1.15,2013-03-05 15:05:00,
2013-03-05 07:15:00,42.7,28.9,29.83,NE,56,3.0,6.0,58,0.00,,,0.00,Wunderground v.1.15,2013-03-05 15:15:00,
2013-03-05 07:20:00,43.1,28.9,29.83,SE,143,4.0,4.0,57,0.00,,,0.00,Wunderground v.1.15,2013-03-05 15:20:00,
2013-03-05 07:25:00,43.3,28.6,29.83,NNE,19,4.0,6.0,56,0.00,,,0.00,Wunderground v.1.15,2013-03-05 15:25:00,
2013-03-05 07:30:00,43.3,29.1,29.83,NW,326,4.0,6.0,57,0.00,,,0.00,Wunderground v.1.15,2013-03-05 15:30:00,
2013-03-05 07:35:00,43.5,28.4,29.83,SE,130,4.0,6.0,55,0.00,,,0.00,Wunderground v.1.15,2013-03-05 15:35:00,
2013-03-05 07:40:00,43.6,28.9,29.83,East,88,4.0,11.0,56,0.00,,,0.00,Wunderground v.1.15,2013-03-05 15:40:00,
2013-03-05 07:45:00,43.7,28.6,29.82,NE,50,4.0,11.0,55,0.00,,,0.00,Wunderground v.1.15,2013-03-05 15:45:00,
2013-03-05 07:50:00,43.9,28.8,29.82,NE,50,4.0,4.0,55,0.00,,,0.00,Wunderground v.1.15,2013-03-05 15:50:00,
2013-03-05 07:55:00,44.0,28.9,29.82,NNW,332,4.0,5.0,55,0.00,,,0.00,Wunderground v.1.15,2013-03-05 15:55:00,
2013-03-05 08:00:00,43.9,28.8,29.82,WNW,293,4.0,6.0,55,0.00,,,0.00,Wunderground v.1.15,2013-03-05 16:00:00,
2013-03-05 08:05:00,44.0,29.7,29.83,East,79,3.0,6.0,57,0.00,,,0.00,Wunderground v.1.15,2013-03-05 16:05:00,
2013-03-05 08:10:00,44.1,29.4,29.83,NNW,340,3.0,8.0,56,0.00,,,0.00,Wunderground v.1.15,2013-03-05 16:10:00,
2013-03-05 08:15:00,44.2,29.0,29.83,NE,40,3.0,8.0,55,0.00,,,0.00,Wunderground v.1.15,2013-03-05 16:15:00,
2013-03-05 08:20:00,44.3,29.1,29.83,NE,44,3.0,3.0,55,0.00,,,0.00,Wunderground v.1.15,2013-03-05 16:20:00,
2013-03-05 08:25:00,44.3,30.0,29.83,North,349,3.0,4.0,57,0.00,,,0.00,Wunderground v.1.15,2013-03-05 16:25:00,
2013-03-05 08:30:00,44.4,29.2,29.84,NNW,334,3.0,3.0,55,0.00,,,0.00,Wunderground v.1.15,2013-03-05 16:30:00,
2013-03-05 08:35:00,44.5,30.6,29.83,SSE,167,4.0,4.0,58,0.00,,,0.00,Wunderground v.1.15,2013-03-05 16:35:00,
2013-03-05 08:40:00,44.3,30.9,29.83,East,79,3.0,3.0,59,0.00,,,0.00,Wunderground v.1.15,2013-03-05 16:40:00,
2013-03-05 08:45:00,44.4,29.7,29.84,North,7,2.0,6.0,56,0.00,,,0.00,Wunderground v.1.15,2013-03-05 16:45:00,
2013-03-05 08:50:00,44.5,30.6,29.84,NE,34,2.0,8.0,58,0.00,,,0.00,Wunderground v.1.15,2013-03-05 16:50:00,
2013-03-05 08:55:00,44.4,31.0,29.84,NNE,32,2.0,8.0,59,0.00,,,0.00,Wunderground v.1.15,2013-03-05 16:55:00,
2013-03-05 09:00:00,44.4,29.7,29.84,NW,318,2.0,6.0,56,0.00,,,0.00,Wunderground v.1.15,2013-03-05 17:00:00,
2013-03-05 09:05:00,44.6,31.6,29.84,West,266,1.0,6.0,60,0.00,,,0.00,Wunderground v.1.15,2013-03-05 17:05:00,
2013-03-05 09:10:00,44.7,30.0,29.84,NW,316,1.0,1.0,56,0.00,,,0.00,Wunderground v.1.15,2013-03-05 17:10:00,
2013-03-05 09:15:00,45.0,30.7,29.84,NE,54,1.0,6.0,57,0.00,,,0.00,Wunderground v.1.15,2013-03-05 17:15:00,
2013-03-05 09:20:00,45.1,29.4,29.84,ENE,77,1.0,6.0,54,0.00,,,0.00,Wunderground v.1.15,2013-03-05 17:20:00,
2013-03-05 09:25:00,45.5,30.3,29.84,SSE,163,2.0,6.0,55,0.00,,,0.00,Wunderground v.1.15,2013-03-05 17:25:00,
2013-03-05 09:30:00,45.8,30.1,29.84,NE,54,1.0,6.0,54,0.00,,,0.00,Wunderground v.1.15,2013-03-05 17:30:00,
2013-03-05 09:35:00,46.0,32.0,29.84,NNE,25,1.0,6.0,58,0.00,,,0.00,Wunderground v.1.15,2013-03-05 17:35:00,
2013-03-05 09:40:00,46.0,29.8,29.84,NNE,20,1.0,6.0,53,0.00,,,0.00,Wunderground v.1.15,2013-03-05 17:40:00,
2013-03-05 09:45:00,46.1,30.4,29.84,SW,228,1.0,6.0,54,0.00,,,0.00,Wunderground v.1.15,2013-03-05 17:45:00,
2013-03-05 09:50:00,46.3,29.1,29.84,ENE,68,1.0,1.0,51,0.00,,,0.00,Wunderground v.1.15,2013-03-05 17:50:00,
2013-03-05 09:55:00,46.6,29.4,29.85,SW,224,1.0,6.0,51,0.00,,,0.00,Wunderground v.1.15,2013-03-05 17:55:00,
2013-03-05 10:00:00,46.8,29.1,29.84,ENE,68,1.0,6.0,50,0.00,,,0.00,Wunderground v.1.15,2013-03-05 18:00:00,
2013-03-05 10:05:00,46.9,31.6,29.84,NNW,340,2.0,6.0,55,0.00,,,0.00,Wunderground v.1.15,2013-03-05 18:05:00,
2013-03-05 10:10:00,46.9,32.9,29.84,NE,50,1.0,6.0,58,0.00,,,0.00,Wunderground v.1.15,2013-03-05 18:10:00,
2013-03-05 10:15:00,47.0,31.2,29.84,South,191,1.0,6.0,54,0.00,,,0.00,Wunderground v.1.15,2013-03-05 18:15:00,
2013-03-05 10:20:00,47.2,30.0,29.84,SSW,205,2.0,2.0,51,0.00,,,0.00,Wunderground v.1.15,2013-03-05 18:20:00,
2013-03-05 10:25:00,47.5,30.3,29.84,NE,49,1.0,6.0,51,0.00,,,0.00,Wunderground v.1.15,2013-03-05 18:25:00,
2013-03-05 10:30:00,47.7,30.4,29.84,West,277,1.0,6.0,51,0.00,,,0.00,Wunderground v.1.15,2013-03-05 18:30:00,
2013-03-05 10:35:00,47.8,31.0,29.84,ENE,60,1.0,6.0,52,0.00,,,0.00,Wunderground v.1.15,2013-03-05 18:35:00,
2013-03-05 10:40:00,48.0,31.2,29.84,SW,217,1.0,6.0,52,0.00,,,0.00,Wunderground v.1.15,2013-03-05 18:40:00,
2013-03-05 10:45:00,48.3,31.0,29.84,SSE,160,1.0,6.0,51,0.00,,,0.00,Wunderground v.1.15,2013-03-05 18:45:00,
2013-03-05 10:50:00,48.5,30.7,29.84,SW,228,1.0,6.0,50,0.00,,,0.00,Wunderground v.1.15,2013-03-05 18:50:00,
2013-03-05 10:55:00,48.6,29.8,29.83,SE,146,1.0,6.0,48,0.00,,,0.00,Wunderground v.1.15,2013-03-05 18:55:00,
2013-03-05 11:00:00,48.7,30.4,29.83,NNW,331,1.0,1.0,49,0.00,,,0.00,Wunderground v.1.15,2013-03-05 19:00:00,
2013-03-05 11:05:00,49.1,33.6,29.83,SE,127,0.0,6.0,55,0.00,,,0.00,Wunderground v.1.15,2013-03-05 19:05:00,
2013-03-05 11:10:00,49.2,31.8,29.82,NW,304,1.0,6.0,51,0.00,,,0.00,Wunderground v.1.15,2013-03-05 19:10:00,
2013-03-05 11:15:00,49.3,31.9,29.82,ENE,67,1.0,6.0,51,0.00,,,0.00,Wunderground v.1.15,2013-03-05 19:15:00,
2013-03-05 11:20:00,49.3,32.4,29.81,NE,49,1.0,1.0,52,0.00,,,0.00,Wunderground v.1.15,2013-03-05 19:20:00,
2013-03-05 11:25:00,49.5,31.1,29.81,NE,38,2.0,2.0,49,0.00,,,0.00,Wunderground v.1.15,2013-03-05 19:25:00,
2013-03-05 11:30:00,49.6,31.7,29.81,WNW,284,2.0,2.0,50,0.00,,,0.00,Wunderground v.1.15,2013-03-05 19:30:00,
2013-03-05 11:35:00,49.7,30.3,29.81,WNW,301,2.0,3.0,47,0.00,,,0.00,Wunderground v.1.15,2013-03-05 19:35:00,
2013-03-05 11:40:00,49.9,31.0,29.80,East,93,2.0,2.0,48,0.00,,,0.00,Wunderground v.1.15,2013-03-05 19:40:00,
2013-03-05 11:45:00,50.5,33.0,29.80,East,85,1.0,6.0,51,0.00,,,0.00,Wunderground v.1.15,2013-03-05 19:45:00,
2013-03-05 11:50:00,50.7,30.7,29.80,West,278,1.0,6.0,46,0.00,,,0.00,Wunderground v.1.15,2013-03-05 19:50:00,
2013-03-05 11:55:00,51.0,32.0,29.80,WSW,252,2.0,6.0,48,0.00,,,0.00,Wunderground v.1.15,2013-03-05 19:55:00,
2013-03-05 12:00:00,51.6,32.0,29.79,SSE,158,1.0,6.0,47,0.00,,,0.00,Wunderground v.1.15,2013-03-05 20:00:00,
2013-03-05 12:05:00,51.7,31.6,29.79,SE,124,2.0,6.0,46,0.00,,,0.00,Wunderground v.1.15,2013-03-05 20:05:00,
2013-03-05 12:10:00,52.0,32.9,29.79,NNW,327,2.0,8.0,48,0.00,,,0.00,Wunderground v.1.15,2013-03-05 20:10:00,
2013-03-05 12:15:00,52.1,31.4,29.78,NNE,20,2.0,8.0,45,0.00,,,0.00,Wunderground v.1.15,2013-03-05 20:15:00,
2013-03-05 12:20:00,52.1,31.9,29.78,ENE,63,2.0,2.0,46,0.00,,,0.00,Wunderground v.1.15,2013-03-05 20:20:00,
2013-03-05 12:25:00,52.6,31.3,29.78,NNW,345,2.0,3.0,44,0.00,,,0.00,Wunderground v.1.15,2013-03-05 20:25:00,
2013-03-05 12:30:00,52.8,33.6,29.78,South,172,3.0,7.0,48,0.00,,,0.00,Wunderground v.1.15,2013-03-05 20:30:00,
2013-03-05 12:35:00,52.7,30.8,29.78,SE,146,3.0,7.0,43,0.00,,,0.00,Wunderground v.1.15,2013-03-05 20:35:00,
2013-03-05 12:40:00,52.9,31.0,29.78,SSW,207,2.0,6.0,43,0.00,,,0.00,Wunderground v.1.15,2013-03-05 20:40:00,
2013-03-05 12:45:00,53.0,31.6,29.78,SSE,156,1.0,6.0,44,0.00,,,0.00,Wunderground v.1.15,2013-03-05 20:45:00,
2013-03-05 12:50:00,53.1,30.6,29.78,SW,229,1.0,6.0,42,0.00,,,0.00,Wunderground v.1.15,2013-03-05 20:50:00,
2013-03-05 12:55:00,53.0,30.5,29.78,South,169,2.0,6.0,42,0.00,,,0.00,Wunderground v.1.15,2013-03-05 20:55:00,
2013-03-05 13:00:00,53.0,31.6,29.78,ENE,61,2.0,6.0,44,0.00,,,0.00,Wunderground v.1.15,2013-03-05 21:00:00,
2013-03-05 13:05:00,52.9,31.6,29.77,ESE,105,3.0,6.0,44,0.00,,,0.00,Wunderground v.1.15,2013-03-05 21:05:00,
2013-03-05 13:10:00,52.9,31.6,29.77,South,172,2.0,2.0,44,0.00,,,0.00,Wunderground v.1.15,2013-03-05 21:10:00,
2013-03-05 13:15:00,52.9,30.4,29.77,SSE,153,1.0,6.0,42,0.00,,,0.00,Wunderground v.1.15,2013-03-05 21:15:00,
2013-03-05 13:20:00,52.9,30.4,29.77,ESE,112,2.0,6.0,42,0.00,,,0.00,Wunderground v.1.15,2013-03-05 21:20:00,
2013-03-05 13:25:00,52.9,30.4,29.77,East,86,1.0,6.0,42,0.00,,,0.00,Wunderground v.1.15,2013-03-05 21:25:00,
2013-03-05 13:30:00,53.0,31.1,29.77,SE,141,1.0,6.0,43,0.00,,,0.00,Wunderground v.1.15,2013-03-05 21:30:00,
2013-03-05 13:35:00,53.1,30.6,29.77,SW,222,1.0,6.0,42,0.00,,,0.00,Wunderground v.1.15,2013-03-05 21:35:00,
2013-03-05 13:40:00,53.2,31.3,29.77,ENE,62,0.0,6.0,43,0.00,,,0.00,Wunderground v.1.15,2013-03-05 21:40:00,
2013-03-05 13:45:00,53.3,31.4,29.77,ESE,117,0.0,6.0,43,0.00,,,0.00,Wunderground v.1.15,2013-03-05 21:45:00,
2013-03-05 13:50:00,53.3,31.4,29.76,WSW,247,1.0,1.0,43,0.00,,,0.00,Wunderground v.1.15,2013-03-05 21:50:00,
2013-03-05 13:55:00,53.4,32.6,29.76,WSW,241,1.0,6.0,45,0.00,,,0.00,Wunderground v.1.15,2013-03-05 21:55:00,
2013-03-05 14:00:00,53.4,32.6,29.76,SW,226,0.0,6.0,45,0.00,,,0.00,Wunderground v.1.15,2013-03-05 22:00:00,
2013-03-05 14:05:00,53.5,34.8,29.77,SSW,203,0.0,6.0,49,0.00,,,0.00,Wunderground v.1.15,2013-03-05 22:05:00,
2013-03-05 14:10:00,53.2,34.0,29.77,SW,226,1.0,6.0,48,0.00,,,0.00,Wunderground v.1.15,2013-03-05 22:10:00,
2013-03-05 14:15:00,53.1,31.7,29.76,SW,235,1.0,6.0,44,0.00,,,0.00,Wunderground v.1.15,2013-03-05 22:15:00,
2013-03-05 14:20:00,53.0,32.8,29.76,SSE,152,1.0,1.0,46,0.00,,,0.00,Wunderground v.1.15,2013-03-05 22:20:00,
2013-03-05 14:25:00,53.3,34.6,29.76,SW,224,1.0,6.0,49,0.00,,,0.00,Wunderground v.1.15,2013-03-05 22:25:00,
2013-03-05 14:30:00,53.5,33.7,29.76,SW,224,0.0,6.0,47,0.00,,,0.00,Wunderground v.1.15,2013-03-05 22:30:00,
2013-03-05 14:35:00,53.5,33.7,29.76,SW,224,0.0,6.0,47,0.00,,,0.00,Wunderground v.1.15,2013-03-05 22:35:00,
2013-03-05 14:40:00,53.5,33.2,29.75,SSE,147,1.0,1.0,46,0.00,,,0.00,Wunderground v.1.15,2013-03-05 22:40:00,
2013-03-05 14:45:00,53.6,32.8,29.75,SE,146,0.0,6.0,45,0.00,,,0.00,Wunderground v.1.15,2013-03-05 22:45:00,
2013-03-05 14:50:00,53.5,32.1,29.75,NNW,335,0.0,6.0,44,0.00,,,0.00,Wunderground v.1.15,2013-03-05 22:50:00,
2013-03-05 15:00:00,53.1,31.7,29.76,SW,222,0.0,6.0,44,0.00,,,0.00,Wunderground v.1.15,2013-03-05 23:00:00,
2013-03-05 15:05:00,53.0,35.3,29.76,SW,224,0.0,6.0,51,0.00,,,0.00,Wunderground v.1.15,2013-03-05 23:05:00,
2013-03-05 15:10:00,52.8,34.2,29.76,SW,224,0.0,6.0,49,0.00,,,0.00,Wunderground v.1.15,2013-03-05 23:10:00,
2013-03-05 15:15:00,52.5,33.4,29.76,SW,224,0.0,6.0,48,0.00,,,0.00,Wunderground v.1.15,2013-03-05 23:15:00,
2013-03-05 15:20:00,52.3,34.2,29.76,SW,224,0.0,6.0,50,0.00,,,0.00,Wunderground v.1.15,2013-03-05 23:20:00,
2013-03-05 15:25:00,52.0,33.9,29.75,SW,217,0.0,6.0,50,0.00,,,0.00,Wunderground v.1.15,2013-03-05 23:25:00,
2013-03-05 15:30:00,51.7,35.1,29.75,SW,217,0.0,6.0,53,0.00,,,0.00,Wunderground v.1.15,2013-03-05 23:30:00,
2013-03-05 15:35:00,51.4,34.3,29.75,SW,231,1.0,6.0,52,0.00,,,0.00,Wunderground v.1.15,2013-03-05 23:35:00,
2013-03-05 15:40:00,51.1,35.0,29.76,West,281,1.0,1.0,54,0.00,,,0.00,Wunderground v.1.15,2013-03-05 23:40:00,
2013-03-05 15:45:00,50.8,35.2,29.76,SW,219,0.0,6.0,55,0.00,,,0.00,Wunderground v.1.15,2013-03-05 23:45:00,
2013-03-05 15:50:00,50.6,34.6,29.76,WSW,238,1.0,6.0,54,0.00,,,0.00,Wunderground v.1.15,2013-03-05 23:50:00,
2013-03-05 15:55:00,50.5,35.4,29.76,West,260,1.0,6.0,56,0.00,,,0.00,Wunderground v.1.15,2013-03-05 23:55:00,
2013-03-05 16:00:00,50.3,35.6,29.76,WSW,256,1.0,1.0,57,0.00,,,0.00,Wunderground v.1.15,2013-03-06 00:00:00,
2013-03-05 16:05:00,50.1,35.4,29.76,West,274,0.0,6.0,57,0.00,,,0.00,Wunderground v.1.15,2013-03-06 00:05:00,
2013-03-05 16:10:00,50.0,35.4,29.76,SSE,156,0.0,6.0,57,0.00,,,0.00,Wunderground v.1.15,2013-03-06 00:10:00,
2013-03-05 16:15:00,49.7,35.9,29.76,SE,134,0.0,6.0,59,0.00,,,0.00,Wunderground v.1.15,2013-03-06 00:15:00,
2013-03-05 16:20:00,49.7,36.8,29.76,SSE,152,1.0,1.0,61,0.00,,,0.00,Wunderground v.1.15,2013-03-06 00:20:00,
2013-03-05 16:25:00,49.5,35.8,29.76,SSE,153,0.0,6.0,59,0.00,,,0.00,Wunderground v.1.15,2013-03-06 00:25:00,
2013-03-05 16:30:00,49.4,38.1,29.75,SSE,152,0.0,6.0,65,0.00,,,0.00,Wunderground v.1.15,2013-03-06 00:30:00,
2013-03-05 16:35:00,49.2,37.1,29.76,North,353,1.0,6.0,63,0.00,,,0.00,Wunderground v.1.15,2013-03-06 00:35:00,
2013-03-05 16:40:00,49.1,37.8,29.76,SSW,205,1.0,1.0,65,0.00,,,0.00,Wunderground v.1.15,2013-03-06 00:40:00,
2013-03-05 16:45:00,48.9,38.0,29.76,SSW,205,0.0,6.0,66,0.00,,,0.00,Wunderground v.1.15,2013-03-06 00:45:00,
2013-03-05 16:55:00,48.7,37.8,29.76,WNW,294,0.0,6.0,66,0.00,,,0.00,Wunderground v.1.15,2013-03-06 00:55:00,
2013-03-05 17:00:00,48.5,37.3,29.76,NNE,19,0.0,6.0,65,0.00,,,0.00,Wunderground v.1.15,2013-03-06 01:00:00,
2013-03-05 17:05:00,48.2,37.8,29.76,SSW,210,1.0,6.0,67,0.00,,,0.00,Wunderground v.1.15,2013-03-06 01:05:00,
2013-03-05 17:10:00,47.8,37.7,29.76,SW,229,2.0,2.0,68,0.00,,,0.00,Wunderground v.1.15,2013-03-06 01:10:00,
2013-03-05 17:15:00,47.6,37.2,29.77,West,278,1.0,6.0,67,0.00,,,0.00,Wunderground v.1.15,2013-03-06 01:15:00,
2013-03-05 17:20:00,47.5,37.1,29.77,WNW,290,1.0,1.0,67,0.00,,,0.00,Wunderground v.1.15,2013-03-06 01:20:00,
2013-03-05 17:25:00,47.2,37.5,29.77,WSW,242,1.0,6.0,69,0.00,,,0.00,Wunderground v.1.15,2013-03-06 01:25:00,
2013-03-05 17:30:00,46.9,38.0,29.77,North,353,0.0,6.0,71,0.00,,,0.00,Wunderground v.1.15,2013-03-06 01:30:00,
2013-03-05 17:35:00,46.6,37.7,29.77,NNW,338,0.0,6.0,71,0.00,,,0.00,Wunderground v.1.15,2013-03-06 01:35:00,
2013-03-05 17:40:00,46.5,38.0,29.77,NNW,330,0.0,6.0,72,0.00,,,0.00,Wunderground v.1.15,2013-03-06 01:40:00,
2013-03-05 17:45:00,46.3,37.8,29.77,NNW,330,0.0,6.0,72,0.00,,,0.00,Wunderground v.1.15,2013-03-06 01:45:00,
2013-03-05 17:50:00,46.0,38.2,29.77,NNW,330,0.0,6.0,74,0.00,,,0.00,Wunderground v.1.15,2013-03-06 01:50:00,
2013-03-05 17:55:00,45.8,38.0,29.77,South,179,0.0,6.0,74,0.00,,,0.00,Wunderground v.1.15,2013-03-06 01:55:00,
2013-03-05 18:00:00,45.8,38.0,29.77,ESE,114,0.0,6.0,74,0.00,,,0.00,Wunderground v.1.15,2013-03-06 02:00:00,
2013-03-05 18:05:00,45.6,38.8,29.76,ESE,114,0.0,6.0,77,0.00,,,0.00,Wunderground v.1.15,2013-03-06 02:05:00,
2013-03-05 18:10:00,45.3,37.8,29.76,ESE,114,0.0,6.0,75,0.00,,,0.00,Wunderground v.1.15,2013-03-06 02:10:00,
2013-03-05 18:15:00,45.2,38.1,29.77,ESE,114,0.0,6.0,76,0.00,,,0.00,Wunderground v.1.15,2013-03-06 02:15:00,
2013-03-05 18:20:00,45.0,38.6,29.77,ESE,113,0.0,6.0,78,0.00,,,0.00,Wunderground v.1.15,2013-03-06 02:20:00,
2013-03-05 18:25:00,44.9,38.5,29.77,ESE,113,0.0,6.0,78,0.00,,,0.00,Wunderground v.1.15,2013-03-06 02:25:00,
2013-03-05 18:35:00,44.5,38.7,29.76,ESE,110,0.0,6.0,80,0.00,,,0.00,Wunderground v.1.15,2013-03-06 02:35:00,
2013-03-05 18:40:00,44.3,38.8,29.76,ESE,110,0.0,6.0,81,0.00,,,0.00,Wunderground v.1.15,2013-03-06 02:40:00,
2013-03-05 18:45:00,44.1,38.3,29.77,ESE,110,0.0,6.0,80,0.00,,,0.00,Wunderground v.1.15,2013-03-06 02:45:00,
2013-03-05 18:50:00,43.9,38.4,29.77,ESE,110,0.0,6.0,81,0.00,,,0.00,Wunderground v.1.15,2013-03-06 02:50:00,
2013-03-05 18:55:00,43.9,38.4,29.77,ESE,110,0.0,6.0,81,0.00,,,0.00,Wunderground v.1.15,2013-03-06 02:55:00,
2013-03-05 19:05:00,43.5,38.1,29.77,ESE,110,0.0,6.0,81,0.00,,,0.00,Wunderground v.1.15,2013-03-06 03:05:00,
2013-03-05 19:10:00,43.4,38.0,29.77,ESE,110,0.0,6.0,81,0.00,,,0.00,Wunderground v.1.15,2013-03-06 03:10:00,
2013-03-05 19:15:00,43.3,37.9,29.76,ESE,110,0.0,6.0,81,0.00,,,0.00,Wunderground v.1.15,2013-03-06 03:15:00,
2013-03-05 19:20:00,43.2,37.8,29.76,ESE,110,0.0,6.0,81,0.00,,,0.00,Wunderground v.1.15,2013-03-06 03:20:00,
2013-03-05 19:25:00,43.1,37.7,29.76,ESE,110,0.0,6.0,81,0.00,,,0.00,Wunderground v.1.15,2013-03-06 03:25:00,
2013-03-05 19:30:00,43.0,37.3,29.76,ESE,110,0.0,6.0,80,0.00,,,0.00,Wunderground v.1.15,2013-03-06 03:30:00,
2013-03-05 19:35:00,42.9,37.2,29.76,ESE,110,0.0,6.0,80,0.00,,,0.00,Wunderground v.1.15,2013-03-06 03:35:00,
2013-03-05 19:40:00,42.8,37.1,29.76,ESE,110,0.0,6.0,80,0.00,,,0.00,Wunderground v.1.15,2013-03-06 03:40:00,
2013-03-05 19:45:00,42.8,37.1,29.76,ESE,110,0.0,6.0,80,0.00,,,0.00,Wunderground v.1.15,2013-03-06 03:45:00,
2013-03-05 19:50:00,42.7,37.0,29.76,ESE,110,0.0,6.0,80,0.00,,,0.00,Wunderground v.1.15,2013-03-06 03:50:00,
2013-03-05 19:55:00,42.6,36.5,29.76,ESE,110,0.0,6.0,79,0.00,,,0.00,Wunderground v.1.15,2013-03-06 03:55:00,
2013-03-05 20:00:00,42.5,36.1,29.76,ESE,110,0.0,6.0,78,0.00,,,0.00,Wunderground v.1.15,2013-03-06 04:00:00,
2013-03-05 20:10:00,42.4,36.3,29.75,ESE,110,0.0,6.0,79,0.00,,,0.00,Wunderground v.1.15,2013-03-06 04:10:00,
2013-03-05 20:15:00,42.3,35.9,29.76,ESE,110,0.0,6.0,78,0.00,,,0.00,Wunderground v.1.15,2013-03-06 04:15:00,
2013-03-05 20:20:00,42.2,36.2,29.75,ESE,110,0.0,6.0,79,0.00,,,0.00,Wunderground v.1.15,2013-03-06 04:20:00,
2013-03-05 20:25:00,42.1,36.1,29.75,ESE,110,0.0,6.0,79,0.00,,,0.00,Wunderground v.1.15,2013-03-06 04:25:00,
2013-03-05 20:30:00,42.1,35.7,29.75,ESE,110,0.0,6.0,78,0.00,,,0.00,Wunderground v.1.15,2013-03-06 04:30:00,
2013-03-05 20:35:00,42.0,36.0,29.75,ESE,110,0.0,6.0,79,0.00,,,0.00,Wunderground v.1.15,2013-03-06 04:35:00,
2013-03-05 20:40:00,42.0,36.0,29.75,ESE,110,0.0,6.0,79,0.00,,,0.00,Wunderground v.1.15,2013-03-06 04:40:00,
2013-03-05 20:45:00,41.9,35.9,29.75,ESE,110,0.0,6.0,79,0.00,,,0.00,Wunderground v.1.15,2013-03-06 04:45:00,
2013-03-05 20:50:00,41.8,35.4,29.75,ESE,110,0.0,6.0,78,0.00,,,0.00,Wunderground v.1.15,2013-03-06 04:50:00,
2013-03-05 20:55:00,41.8,35.4,29.75,ESE,110,0.0,6.0,78,0.00,,,0.00,Wunderground v.1.15,2013-03-06 04:55:00,
2013-03-05 21:00:00,41.7,35.3,29.75,ESE,110,0.0,6.0,78,0.00,,,0.00,Wunderground v.1.15,2013-03-06 05:00:00,
2013-03-05 21:05:00,41.6,34.6,29.76,ESE,110,0.0,6.0,76,0.00,,,0.00,Wunderground v.1.15,2013-03-06 05:05:00,
2013-03-05 21:10:00,41.6,33.9,29.76,ESE,110,0.0,6.0,74,0.00,,,0.00,Wunderground v.1.15,2013-03-06 05:10:00,
2013-03-05 21:15:00,41.5,33.8,29.76,ESE,110,0.0,6.0,74,0.00,,,0.00,Wunderground v.1.15,2013-03-06 05:15:00,
2013-03-05 21:20:00,41.5,33.8,29.76,ESE,110,0.0,6.0,74,0.00,,,0.00,Wunderground v.1.15,2013-03-06 05:20:00,
2013-03-05 21:25:00,41.5,33.5,29.76,ESE,110,0.0,6.0,73,0.00,,,0.00,Wunderground v.1.15,2013-03-06 05:25:00,
2013-03-05 21:30:00,41.4,33.7,29.76,ESE,110,0.0,6.0,74,0.00,,,0.00,Wunderground v.1.15,2013-03-06 05:30:00,
2013-03-05 21:35:00,41.4,34.1,29.76,ESE,110,0.0,6.0,75,0.00,,,0.00,Wunderground v.1.15,2013-03-06 05:35:00,
2013-03-05 21:40:00,41.4,34.1,29.76,ESE,110,0.0,6.0,75,0.00,,,0.00,Wunderground v.1.15,2013-03-06 05:40:00,
2013-03-05 21:50:00,41.2,33.9,29.76,ESE,110,0.0,6.0,75,0.00,,,0.00,Wunderground v.1.15,2013-03-06 05:50:00,
2013-03-05 21:55:00,41.3,34.0,29.76,ESE,110,0.0,6.0,75,0.00,,,0.00,Wunderground v.1.15,2013-03-06 05:55:00,
2013-03-05 22:00:00,41.2,33.5,29.76,North,358,0.0,6.0,74,0.00,,,0.00,Wunderground v.1.15,2013-03-06 06:00:00,
2013-03-05 22:05:00,41.3,33.0,29.76,North,356,0.0,6.0,72,0.00,,,0.00,Wunderground v.1.15,2013-03-06 06:05:00,
2013-03-05 22:10:00,41.2,32.9,29.76,North,357,0.0,6.0,72,0.00,,,0.00,Wunderground v.1.15,2013-03-06 06:10:00,
2013-03-05 22:20:00,41.0,32.7,29.76,North,357,0.0,6.0,72,0.00,,,0.00,Wunderground v.1.15,2013-03-06 06:20:00,
2013-03-05 22:25:00,40.9,32.6,29.75,North,356,0.0,6.0,72,0.00,,,0.00,Wunderground v.1.15,2013-03-06 06:25:00,
2013-03-05 22:30:00,40.9,32.2,29.75,North,356,0.0,6.0,71,0.00,,,0.00,Wunderground v.1.15,2013-03-06 06:30:00,
2013-03-05 22:35:00,40.9,31.9,29.75,North,357,0.0,6.0,70,0.00,,,0.00,Wunderground v.1.15,2013-03-06 06:35:00,
2013-03-05 22:40:00,40.8,31.8,29.75,North,356,0.0,6.0,70,0.00,,,0.00,Wunderground v.1.15,2013-03-06 06:40:00,
2013-03-05 22:45:00,40.6,31.6,29.75,North,356,0.0,6.0,70,0.00,,,0.00,Wunderground v.1.15,2013-03-06 06:45:00,
2013-03-05 22:50:00,40.5,31.1,29.75,North,356,0.0,6.0,69,0.00,,,0.00,Wunderground v.1.15,2013-03-06 06:50:00,
2013-03-05 22:55:00,40.4,30.7,29.74,North,356,0.0,6.0,68,0.00,,,0.00,Wunderground v.1.15,2013-03-06 06:55:00,
2013-03-05 23:05:00,40.1,29.3,29.74,North,356,0.0,6.0,65,0.00,,,0.00,Wunderground v.1.15,2013-03-06 07:05:00,
2013-03-05 23:10:00,40.0,28.0,29.74,North,356,0.0,6.0,62,0.00,,,0.00,Wunderground v.1.15,2013-03-06 07:10:00,
2013-03-05 23:15:00,39.9,28.7,29.73,North,356,0.0,6.0,64,0.00,,,0.00,Wunderground v.1.15,2013-03-06 07:15:00,
2013-03-05 23:20:00,39.8,27.8,29.73,North,356,0.0,6.0,62,0.00,,,0.00,Wunderground v.1.15,2013-03-06 07:20:00,
2013-03-05 23:25:00,39.7,26.9,29.73,North,356,0.0,6.0,60,0.00,,,0.00,Wunderground v.1.15,2013-03-06 07:25:00,
2013-03-05 23:30:00,39.5,26.8,29.73,North,356,0.0,6.0,60,0.00,,,0.00,Wunderground v.1.15,2013-03-06 07:30:00,
2013-03-05 23:35:00,39.3,26.6,29.73,North,356,0.0,6.0,60,0.00,,,0.00,Wunderground v.1.15,2013-03-06 07:35:00,
2013-03-05 23:40:00,39.1,26.0,29.72,North,356,0.0,6.0,59,0.00,,,0.00,Wunderground v.1.15,2013-03-06 07:40:00,
2013-03-05 23:45:00,38.8,25.3,29.72,North,357,0.0,6.0,58,0.00,,,0.00,Wunderground v.1.15,2013-03-06 07:45:00,
2013-03-05 23:50:00,38.5,24.6,29.72,North,356,0.0,6.0,57,0.00,,,0.00,Wunderground v.1.15,2013-03-06 07:50:00,
2013-03-05 23:55:00,38.2,23.0,29.72,North,356,0.0,6.0,54,0.00,,,0.00,Wunderground v.1.15,2013-03-06 07:55:00,